Time;durP1;ratioP1;P1;durP2;ratioP2;P2;SDS_P1;SDS_P2;PMS_P1;PMS_P2;Temp;Humidity;BMP_temperature;BMP_pressure;BME280_temperature;BME280_humidity;BME280_pressure;Samples;Min_cycle;Max_cycle;Signal;HPM_P1;HPM_P2
2023/11/27 00:00:38;;;;;;;0.90;0.25;;;20.90;36.60;21.60;101175.00;;;;5014300;28;20042;-40
2023/11/27 00:03:04;;;;;;;1.30;0.20;;;20.90;36.60;21.60;101171.00;;;;5015240;28;20119;-40
2023/11/27 00:05:30;;;;;;;2.55;0.20;;;20.90;36.60;21.60;101176.00;;;;5006026;28;20128;-40
2023/11/27 00:07:57;;;;;;;0.20;0.20;;;20.90;36.70;21.60;101173.00;;;;5013788;28;20045;-39
2023/11/27 00:10:23;;;;;;;0.75;0.20;;;20.90;36.80;21.50;101165.00;;;;5015359;28;20038;-51
2023/11/27 00:12:49;;;;;;;2.10;0.32;;;20.90;36.80;21.50;101162.00;;;;5016143;28;20077;-54
2023/11/27 00:15:15;;;;;;;0.88;0.30;;;20.80;36.80;21.50;101153.00;;;;5015970;28;20033;-49
2023/11/27 00:17:41;;;;;;;0.50;0.10;;;20.80;36.80;21.50;101148.00;;;;5014701;28;20051;-51
2023/11/27 00:20:09;;;;;;;1.30;0.22;;;20.80;36.90;21.50;101146.00;;;;5022285;28;20363;-50
2023/11/27 00:22:36;;;;;;;0.50;0.20;;;20.80;36.90;21.50;101152.00;;;;5015436;28;20034;-51
2023/11/27 00:25:03;;;;;;;0.80;0.20;;;20.80;36.90;21.50;101143.00;;;;5015730;28;20114;-51
2023/11/27 00:27:29;;;;;;;0.50;0.20;;;20.80;37.00;21.50;101136.00;;;;5015233;28;20048;-49
2023/11/27 00:29:55;;;;;;;1.30;0.20;;;20.70;37.00;21.50;101142.00;;;;5016990;28;20034;-52
2023/11/27 00:32:21;;;;;;;1.48;0.25;;;20.70;37.10;21.40;101136.00;;;;5015447;28;20088;-49
2023/11/27 00:34:47;;;;;;;2.50;0.22;;;20.70;37.10;21.40;101143.00;;;;5006537;28;20367;-53
2023/11/27 00:37:13;;;;;;;0.40;0.20;;;20.70;37.20;21.40;101133.00;;;;5022218;28;20095;-52
2023/11/27 00:39:39;;;;;;;1.15;0.20;;;20.70;37.30;21.40;101127.00;;;;5000496;28;20034;-51
2023/11/27 00:42:05;;;;;;;7.38;0.30;;;20.70;37.40;21.40;101124.00;;;;5017798;28;20489;-51
2023/11/27 00:44:31;;;;;;;1.48;0.17;;;20.60;37.40;21.40;101129.00;;;;5008277;28;20614;-53
2023/11/27 00:46:57;;;;;;;0.63;0.40;;;20.60;37.40;21.40;101119.00;;;;5018367;28;20050;-51
2023/11/27 00:49:23;;;;;;;1.08;0.25;;;20.60;37.30;21.40;101124.00;;;;5001536;28;20099;-55
2023/11/27 00:51:49;;;;;;;2.15;0.30;;;20.60;37.40;21.30;101112.00;;;;5035222;28;20041;-55
2023/11/27 00:54:15;;;;;;;2.70;0.65;;;20.60;37.50;21.30;101117.00;;;;5025482;28;20033;-51
2023/11/27 00:56:41;;;;;;;0.90;0.20;;;20.60;37.50;21.30;101104.00;;;;5001218;28;20042;-56
2023/11/27 00:59:07;;;;;;;0.30;0.20;;;20.60;37.50;21.30;101092.00;;;;5017377;28;20446;-54
2023/11/27 01:01:33;;;;;;;1.67;0.30;;;20.60;37.50;21.30;101086.00;;;;5014833;28;20038;-52
2023/11/27 01:03:59;;;;;;;0.20;0.10;;;20.50;37.50;21.30;101085.00;;;;5010125;28;20493;-50
2023/11/27 01:06:25;;;;;;;0.50;0.30;;;20.50;37.40;21.30;101085.00;;;;5002200;28;20136;-53
2023/11/27 01:08:51;;;;;;;0.73;0.57;;;20.50;37.60;21.30;101075.00;;;;5024598;28;20042;-51
2023/11/27 01:11:18;;;;;;;1.15;0.82;;;20.50;37.60;21.30;101076.00;;;;5018388;28;20041;-53
2023/11/27 01:13:44;;;;;;;2.47;0.10;;;20.50;37.60;21.30;101066.00;;;;5016524;28;20038;-52
2023/11/27 01:16:10;;;;;;;1.42;0.28;;;20.50;37.60;21.30;101061.00;;;;5016973;28;20033;-50
2023/11/27 01:18:36;;;;;;;0.82;0.20;;;20.50;37.70;21.20;101064.00;;;;5032442;28;20391;-53
2023/11/27 01:21:02;;;;;;;0.70;0.30;;;20.50;37.70;21.20;101053.00;;;;5024711;28;20022;-50
2023/11/27 01:23:28;;;;;;;2.00;0.20;;;20.50;37.80;21.20;101043.00;;;;4999287;28;20045;-52
2023/11/27 01:25:54;;;;;;;1.90;0.30;;;20.50;37.80;21.20;101047.00;;;;5017767;28;20044;-55
2023/11/27 01:28:20;;;;;;;0.75;0.20;;;20.50;37.90;21.20;101037.00;;;;5024686;28;20037;-51
2023/11/27 01:30:46;;;;;;;0.60;0.10;;;20.50;37.90;21.20;101032.00;;;;5019606;28;20037;-40
2023/11/27 01:33:12;;;;;;;1.90;0.20;;;20.40;38.00;21.20;101026.00;;;;5001708;28;20371;-40
2023/11/27 01:35:38;;;;;;;1.52;0.20;;;20.40;38.00;21.20;101029.00;;;;5033084;28;20030;-40
2023/11/27 01:38:04;;;;;;;0.65;0.20;;;20.40;38.10;21.20;101025.00;;;;5024148;28;20124;-40
2023/11/27 01:40:30;;;;;;;0.68;0.20;;;20.40;38.10;21.20;101023.00;;;;5017376;28;20038;-40
2023/11/27 01:42:59;;;;;;;2.00;0.22;;;20.40;38.10;21.20;101015.00;;;;4999783;28;20053;-40
2023/11/27 01:45:25;;;;;;;0.50;0.38;;;20.40;38.10;21.20;101014.00;;;;5017187;28;20038;-40
2023/11/27 01:47:52;;;;;;;1.20;0.28;;;20.40;38.70;21.20;101023.00;;;;5018626;28;20127;-41
2023/11/27 01:50:18;;;;;;;1.25;0.20;;;20.40;38.10;21.20;101021.00;;;;5014487;28;20052;-41
2023/11/27 01:52:44;;;;;;;0.68;0.20;;;20.40;38.10;21.10;101008.00;;;;5017273;28;20049;-40
2023/11/27 01:55:11;;;;;;;0.32;0.13;;;20.40;38.10;21.10;101009.00;;;;5017466;28;20034;-40
2023/11/27 01:57:37;;;;;;;1.05;0.40;;;20.40;38.20;21.20;100999.00;;;;5017814;28;20029;-41
2023/11/27 02:00:07;;;;;;;0.35;0.10;;;20.40;38.20;21.10;100996.00;;;;5007807;28;20124;-40
2023/11/27 02:02:49;;;;;;;0.93;0.20;;;20.40;38.20;21.10;100994.00;;;;5016747;28;20033;-41
2023/11/27 02:05:16;;;;;;;0.93;0.38;;;20.40;38.30;21.10;100993.00;;;;5015506;28;20029;-40
2023/11/27 02:07:43;;;;;;;1.05;0.40;;;20.40;38.30;21.10;100985.00;;;;4982901;28;20029;-52
2023/11/27 02:10:10;;;;;;;0.93;0.30;;;20.40;38.40;21.10;100985.00;;;;5016451;28;20109;-50
2023/11/27 02:12:36;;;;;;;0.38;0.30;;;20.40;38.40;21.20;100978.00;;;;5001474;28;20037;-41
2023/11/27 02:15:04;;;;;;;0.85;0.32;;;20.40;38.40;21.20;100973.00;;;;5000633;28;20112;-40
2023/11/27 02:17:31;;;;;;;0.68;0.17;;;20.30;38.40;21.20;100960.00;;;;4985165;28;20048;-40
2023/11/27 02:19:57;;;;;;;0.20;0.20;;;20.30;38.40;21.10;100967.00;;;;5000264;28;20041;-40
2023/11/27 02:22:24;;;;;;;0.68;0.20;;;20.40;38.50;21.10;100962.00;;;;5016040;28;20115;-40
2023/11/27 02:24:50;;;;;;;0.45;0.25;;;20.40;38.60;21.10;100955.00;;;;5017227;28;20070;-40
2023/11/27 02:27:16;;;;;;;0.90;0.20;;;20.30;38.60;21.10;100951.00;;;;5016569;28;20041;-40
2023/11/27 02:29:42;;;;;;;0.70;0.40;;;20.30;38.60;21.10;100954.00;;;;5006740;28;20096;-40
2023/11/27 02:32:08;;;;;;;0.30;0.30;;;20.40;38.70;21.10;100953.00;;;;5015443;28;20060;-52
2023/11/27 02:34:34;;;;;;;0.20;0.20;;;20.30;38.70;21.10;100943.00;;;;5006320;28;20386;-53
2023/11/27 02:37:00;;;;;;;1.13;0.15;;;20.30;38.80;21.10;100934.00;;;;5018328;28;20033;-50
2023/11/27 02:39:26;;;;;;;0.50;0.10;;;20.30;38.70;21.10;100925.00;;;;5017980;28;20496;-52
2023/11/27 02:41:53;;;;;;;0.55;0.20;;;20.30;38.80;21.10;100921.00;;;;5000232;28;20034;-51
2023/11/27 02:44:19;;;;;;;1.75;0.20;;;20.30;38.80;21.10;100914.00;;;;5016406;28;20061;-54
2023/11/27 02:46:45;;;;;;;0.25;0.10;;;20.30;38.80;21.10;100914.00;;;;5014311;28;20062;-51
2023/11/27 02:49:11;;;;;;;0.60;0.20;;;20.30;38.80;21.10;100907.00;;;;5006104;28;20050;-55
2023/11/27 02:51:40;;;;;;;0.63;0.20;;;20.30;38.90;21.10;100905.00;;;;5016418;28;20390;-40
2023/11/27 02:54:07;;;;;;;0.22;0.10;;;20.30;38.90;21.10;100901.00;;;;5005186;28;22289;-40
2023/11/27 02:56:33;;;;;;;2.05;0.85;;;20.30;38.90;21.10;100898.00;;;;5005642;28;20045;-40
2023/11/27 02:59:00;;;;;;;0.80;0.20;;;20.30;38.90;21.10;100890.00;;;;5013783;28;20026;-40
2023/11/27 03:01:27;;;;;;;0.55;0.20;;;20.30;39.00;21.10;100883.00;;;;5016536;28;20021;-40
2023/11/27 03:03:53;;;;;;;1.27;0.10;;;20.30;39.00;21.10;100873.00;;;;5006662;28;20040;-40
2023/11/27 03:06:19;;;;;;;0.40;0.20;;;20.30;39.00;21.10;100877.00;;;;5015355;28;20483;-40
2023/11/27 03:08:45;;;;;;;1.35;0.20;;;20.30;39.10;21.10;100870.00;;;;5015481;28;20048;-40
2023/11/27 03:11:11;;;;;;;0.57;0.25;;;20.30;39.10;21.10;100869.00;;;;5014947;28;20045;-51
2023/11/27 03:13:39;;;;;;;1.13;0.20;;;20.30;39.20;21.10;100860.00;;;;5013487;28;20029;-51
2023/11/27 03:16:05;;;;;;;0.20;0.10;;;20.30;39.30;21.10;100856.00;;;;5016382;28;20374;-53
2023/11/27 03:18:31;;;;;;;1.40;0.28;;;20.30;39.30;21.10;100858.00;;;;4997842;28;20102;-54
2023/11/27 03:20:57;;;;;;;0.30;0.20;;;20.30;39.40;21.10;100853.00;;;;5015886;28;20425;-54
2023/11/27 03:23:24;;;;;;;1.92;0.30;;;20.30;39.40;21.10;100857.00;;;;5030201;28;20052;-52
2023/11/27 03:25:50;;;;;;;0.80;0.20;;;20.30;39.50;21.10;100852.00;;;;5017366;28;20067;-52
2023/11/27 03:28:17;;;;;;;1.15;0.20;;;20.20;39.40;21.10;100847.00;;;;5022365;28;20065;-54
2023/11/27 03:30:43;;;;;;;0.88;0.30;;;20.30;39.40;21.10;100834.00;;;;5015857;28;20629;-39
2023/11/27 03:33:09;;;;;;;0.52;0.20;;;20.30;39.40;21.00;100835.00;;;;5016405;28;20470;-40
2023/11/27 03:35:35;;;;;;;2.55;0.32;;;20.30;39.50;21.00;100830.00;;;;5014048;28;20080;-39
2023/11/27 03:38:03;;;;;;;1.17;0.20;;;20.30;39.40;21.00;100825.00;;;;5015384;28;20470;-40
2023/11/27 03:40:28;;;;;;;1.27;0.10;;;20.20;39.40;21.00;100814.00;;;;4980709;28;20048;-40
2023/11/27 03:42:56;;;;;;;0.90;0.52;;;20.30;39.30;21.00;100810.00;;;;5015853;28;20143;-40
2023/11/27 03:45:22;;;;;;;0.38;0.22;;;20.20;39.30;21.00;100804.00;;;;5016278;28;20037;-40
2023/11/27 03:47:48;;;;;;;0.73;0.32;;;20.20;39.40;21.00;100801.00;;;;5006365;28;20116;-40
2023/11/27 03:50:14;;;;;;;0.30;0.10;;;20.20;39.30;21.00;100790.00;;;;5014570;28;20073;-40
2023/11/27 03:52:40;;;;;;;0.57;0.25;;;20.20;39.30;21.00;100785.00;;;;5022934;28;20363;-40
2023/11/27 03:55:06;;;;;;;0.98;0.17;;;20.20;39.30;21.00;100779.00;;;;5017693;28;20045;-40
2023/11/27 03:57:32;;;;;;;1.40;0.20;;;20.30;39.40;21.00;100774.00;;;;5005820;28;20045;-40
2023/11/27 03:59:58;;;;;;;0.25;0.10;;;20.20;39.30;21.00;100777.00;;;;5015830;28;20030;-40
2023/11/27 04:02:24;;;;;;;0.20;0.10;;;20.20;39.20;21.00;100763.00;;;;4997935;28;20045;-40
2023/11/27 04:04:50;;;;;;;0.73;0.17;;;20.20;39.80;21.00;100748.00;;;;4998553;28;20127;-40
2023/11/27 04:07:16;;;;;;;0.65;0.20;;;20.20;39.20;21.00;100755.00;;;;4997772;28;20513;-41
2023/11/27 04:09:42;;;;;;;0.93;0.10;;;20.20;39.20;21.00;100750.00;;;;5016484;28;20500;-40
2023/11/27 04:12:09;;;;;;;1.17;0.20;;;20.20;39.10;21.00;100748.00;;;;5015756;28;20037;-54
2023/11/27 04:14:35;;;;;;;0.45;0.45;;;20.20;39.10;21.00;100742.00;;;;5018847;28;20350;-53
2023/11/27 04:17:03;;;;;;;3.92;0.10;;;20.20;39.20;21.00;100735.00;;;;4992612;28;20707;-52
2023/11/27 04:19:29;;;;;;;0.28;0.20;;;20.20;39.30;21.00;100739.00;;;;5018913;28;20026;-52
2023/11/27 04:21:55;;;;;;;0.35;0.10;;;20.20;39.20;21.00;100738.00;;;;5032830;28;20029;-50
2023/11/27 04:24:21;;;;;;;1.10;0.20;;;20.20;39.30;21.00;100736.00;;;;5019745;28;20044;-54
2023/11/27 04:26:47;;;;;;;1.40;0.20;;;20.20;39.20;21.00;100739.00;;;;5018743;28;20777;-49
2023/11/27 04:29:13;;;;;;;2.47;0.25;;;20.20;39.20;20.90;100737.00;;;;5018395;28;20104;-51
2023/11/27 04:31:39;;;;;;;0.63;0.10;;;20.20;39.20;20.90;100742.00;;;;5034462;28;20034;-40
2023/11/27 04:34:05;;;;;;;0.80;0.28;;;20.20;39.30;21.00;100738.00;;;;5018693;28;20025;-40
2023/11/27 04:36:32;;;;;;;0.30;0.20;;;20.10;39.20;20.90;100732.00;;;;5017716;28;20026;-40
2023/11/27 04:38:58;;;;;;;0.20;0.20;;;20.10;39.20;20.90;100731.00;;;;5017882;28;20493;-39
2023/11/27 04:41:24;;;;;;;1.65;0.10;;;20.20;39.30;20.90;100725.00;;;;5019757;28;20045;-40
2023/11/27 04:43:51;;;;;;;0.60;0.20;;;20.10;39.40;20.90;100718.00;;;;4999632;28;20600;-39
2023/11/27 04:46:17;;;;;;;0.70;0.10;;;20.10;39.40;20.90;100724.00;;;;5017693;28;20037;-39
2023/11/27 04:48:43;;;;;;;0.57;0.10;;;20.10;39.40;20.90;100714.00;;;;5017879;28;20096;-39
2023/11/27 04:51:09;;;;;;;0.50;0.28;;;20.10;39.40;20.90;100710.00;;;;5000887;28;20041;-40
2023/11/27 04:53:36;;;;;;;0.75;0.10;;;20.10;39.50;20.90;100685.00;;;;5017501;28;20057;-39
2023/11/27 04:56:02;;;;;;;0.45;0.10;;;20.10;39.50;20.90;100689.00;;;;5016954;28;20397;-39
2023/11/27 04:58:28;;;;;;;0.10;0.10;;;20.20;39.50;20.90;100681.00;;;;5016942;28;20092;-39
2023/11/27 05:00:54;;;;;;;0.73;0.20;;;20.10;39.40;20.90;100682.00;;;;5018673;28;20525;-39
2023/11/27 05:03:20;;;;;;;0.38;0.10;;;20.10;39.40;20.90;100667.00;;;;5017621;28;20034;-39
2023/11/27 05:05:46;;;;;;;0.13;0.10;;;20.10;39.50;20.90;100662.00;;;;5015314;28;20118;-39
2023/11/27 05:08:13;;;;;;;0.65;0.20;;;20.10;39.50;20.90;100653.00;;;;5017550;28;20043;-39
2023/11/27 05:10:39;;;;;;;0.20;0.10;;;20.10;39.50;20.90;100648.00;;;;5017005;28;20033;-40
2023/11/27 05:13:06;;;;;;;2.20;0.52;;;20.10;39.50;20.90;100644.00;;;;4998925;28;20044;-40
2023/11/27 05:15:32;;;;;;;0.65;0.10;;;20.10;39.50;20.90;100644.00;;;;5019491;28;20120;-40
2023/11/27 05:17:58;;;;;;;0.82;0.40;;;20.10;39.60;20.90;100634.00;;;;5016856;28;20045;-40
2023/11/27 05:20:24;;;;;;;0.32;0.10;;;20.10;39.60;20.90;100642.00;;;;5016639;28;20065;-39
2023/11/27 05:22:50;;;;;;;2.25;0.13;;;20.10;39.60;20.90;100631.00;;;;5017232;28;20114;-40
2023/11/27 05:25:16;;;;;;;0.20;0.20;;;20.10;39.60;20.90;100633.00;;;;5018463;28;20037;-40
2023/11/27 05:27:42;;;;;;;0.45;0.30;;;20.10;39.60;20.90;100628.00;;;;5017424;28;20043;-39
2023/11/27 05:30:09;;;;;;;1.73;0.45;;;20.10;39.60;20.90;100620.00;;;;5014750;28;20068;-40
2023/11/27 05:32:35;;;;;;;0.10;0.10;;;20.10;39.70;20.90;100622.00;;;;5017057;28;20382;-54
2023/11/27 05:35:01;;;;;;;1.38;0.10;;;20.10;39.60;20.90;100612.00;;;;5016811;28;20040;-52
2023/11/27 05:37:27;;;;;;;1.42;0.10;;;20.10;39.60;20.90;100610.00;;;;5015905;28;20037;-51
2023/11/27 05:39:54;;;;;;;0.13;0.10;;;20.10;39.60;20.90;100599.00;;;;5022971;28;20048;-53
2023/11/27 05:42:20;;;;;;;0.47;0.17;;;20.10;39.60;20.90;100593.00;;;;5024053;28;22341;-52
2023/11/27 05:44:47;;;;;;;0.50;0.20;;;20.10;39.60;20.90;100599.00;;;;5016189;28;20029;-53
2023/11/27 05:47:13;;;;;;;0.90;0.13;;;20.10;39.60;20.90;100593.00;;;;5018153;28;20486;-52
2023/11/27 05:49:40;;;;;;;0.25;0.20;;;20.10;39.60;20.90;100582.00;;;;4991120;28;20114;-52
2023/11/27 05:52:07;;;;;;;0.40;0.20;;;20.10;39.60;20.90;100596.00;;;;4999364;28;20713;-54
2023/11/27 05:54:33;;;;;;;0.40;0.10;;;20.10;40.20;20.90;100590.00;;;;5015830;28;20073;-54
2023/11/27 05:56:59;;;;;;;0.82;0.20;;;20.10;39.60;20.90;100589.00;;;;5013998;28;20080;-50
2023/11/27 05:59:25;;;;;;;0.93;0.30;;;20.10;39.60;20.90;100576.00;;;;5018399;28;20057;-51
2023/11/27 06:01:52;;;;;;;0.35;0.22;;;20.10;39.60;20.90;100574.00;;;;5015669;28;20038;-52
2023/11/27 06:04:18;;;;;;;1.13;0.10;;;20.10;39.60;20.90;100572.00;;;;5017184;28;20033;-52
2023/11/27 06:06:44;;;;;;;0.35;0.10;;;20.10;39.70;20.90;100572.00;;;;4997816;28;20034;-51
2023/11/27 06:09:11;;;;;;;0.57;0.10;;;20.00;39.60;20.90;100568.00;;;;5033933;28;20120;-52
2023/11/27 06:11:37;;;;;;;0.30;0.10;;;20.00;39.60;20.80;100568.00;;;;5000479;28;20037;-51
2023/11/27 06:14:03;;;;;;;0.22;0.20;;;20.10;39.70;20.80;100556.00;;;;5016988;28;20878;-53
2023/11/27 06:16:29;;;;;;;2.15;0.20;;;20.10;39.70;20.80;100552.00;;;;5018038;28;20088;-53
2023/11/27 06:18:55;;;;;;;0.30;0.20;;;20.10;39.80;20.80;100555.00;;;;5014633;28;20463;-52
2023/11/27 06:21:21;;;;;;;0.63;0.15;;;20.00;39.80;20.90;100546.00;;;;5039025;28;20071;-50
2023/11/27 06:23:47;;;;;;;4.25;0.20;;;20.00;39.70;20.90;100539.00;;;;5005988;28;20065;-51
2023/11/27 06:26:13;;;;;;;1.52;0.32;;;20.10;39.80;20.90;100541.00;;;;5032039;28;20475;-49
2023/11/27 06:28:40;;;;;;;0.77;0.28;;;20.00;39.80;20.90;100534.00;;;;5016521;28;20038;-51
2023/11/27 06:31:06;;;;;;;0.38;0.15;;;20.00;39.80;20.90;100534.00;;;;5000000;28;20513;-49
2023/11/27 06:33:32;;;;;;;0.20;0.20;;;20.00;39.70;20.80;100527.00;;;;5018975;28;20119;-50
2023/11/27 06:36:00;;;;;;;1.67;0.10;;;20.00;39.70;20.80;100521.00;;;;5017899;28;20034;-51
2023/11/27 06:38:26;;;;;;;0.82;0.50;;;20.00;39.80;20.80;100510.00;;;;5016859;28;20119;-54
2023/11/27 06:40:53;;;;;;;0.30;0.30;;;20.00;39.80;20.80;100504.00;;;;5015441;28;20033;-49
2023/11/27 06:43:18;;;;;;;0.20;0.10;;;20.00;39.90;20.80;100507.00;;;;5007233;28;20048;-51
2023/11/27 06:45:44;;;;;;;0.95;0.10;;;20.00;39.90;20.80;100500.00;;;;5014084;28;20038;-55
2023/11/27 06:48:11;;;;;;;0.38;0.10;;;20.00;39.90;20.80;100493.00;;;;5006259;28;20072;-51
2023/11/27 06:50:37;;;;;;;0.30;0.30;;;20.00;39.90;20.80;100487.00;;;;5016896;28;20120;-52
2023/11/27 06:53:03;;;;;;;2.83;0.20;;;20.00;39.90;20.80;100498.00;;;;5015833;28;20132;-52
2023/11/27 06:55:29;;;;;;;0.80;0.15;;;20.00;39.90;20.80;100498.00;;;;5014168;28;20558;-50
2023/11/27 06:57:55;;;;;;;0.20;0.20;;;20.00;40.00;20.80;100493.00;;;;5022210;28;20529;-52
2023/11/27 07:00:21;;;;;;;0.28;0.25;;;20.00;39.90;20.80;100481.00;;;;5015737;28;20036;-52
2023/11/27 07:02:47;;;;;;;0.32;0.10;;;20.00;40.00;20.80;100475.00;;;;5016365;28;20033;-51
2023/11/27 07:05:13;;;;;;;0.30;0.20;;;20.00;39.90;20.80;100469.00;;;;5013305;28;20079;-50
2023/11/27 07:07:39;;;;;;;0.75;0.10;;;20.00;40.00;20.80;100468.00;;;;5015855;28;20048;-50
2023/11/27 07:10:05;;;;;;;0.40;0.20;;;19.90;39.90;20.80;100466.00;;;;5016174;28;20030;-51
2023/11/27 07:12:32;;;;;;;2.97;0.15;;;20.00;40.00;20.80;100466.00;;;;5012969;28;20131;-40
2023/11/27 07:14:59;;;;;;;1.55;0.10;;;20.00;40.10;20.80;100468.00;;;;5015428;28;20044;-40
2023/11/27 07:17:25;;;;;;;1.38;0.20;;;19.90;40.00;20.80;100459.00;;;;5013596;28;20529;-41
2023/11/27 07:19:51;;;;;;;0.20;0.10;;;20.00;40.10;20.80;100445.00;;;;5015807;28;20124;-40
2023/11/27 07:22:17;;;;;;;0.52;0.20;;;19.90;40.00;20.70;100455.00;;;;5015560;28;20044;-40
2023/11/27 07:24:43;;;;;;;1.38;0.17;;;20.00;40.20;20.70;100441.00;;;;5015369;28;20427;-40
2023/11/27 07:27:09;;;;;;;0.85;0.20;;;20.00;40.10;20.80;100432.00;;;;5013883;28;20670;-41
2023/11/27 07:29:35;;;;;;;1.67;0.25;;;20.00;40.10;20.70;100442.00;;;;5014174;28;20048;-40
2023/11/27 07:32:01;;;;;;;0.85;0.10;;;19.90;40.10;20.70;100442.00;;;;5015797;28;20071;-53
2023/11/27 07:34:27;;;;;;;0.32;0.10;;;19.90;40.10;20.70;100451.00;;;;5014777;28;20493;-51
2023/11/27 07:36:53;;;;;;;1.40;0.20;;;19.90;40.10;20.70;100447.00;;;;5015154;28;20517;-50
2023/11/27 07:39:19;;;;;;;1.48;0.40;;;19.90;40.20;20.70;100433.00;;;;5016572;28;20068;-52
2023/11/27 07:41:45;;;;;;;1.05;0.20;;;20.00;40.20;20.70;100429.00;;;;5023244;28;20048;-50
2023/11/27 07:44:15;;;;;;;1.05;0.30;;;19.90;40.20;20.70;100425.00;;;;5014948;28;20623;-50
2023/11/27 07:46:41;;;;;;;9.18;0.40;;;20.00;40.40;20.70;100420.00;;;;4999816;28;20029;-50
2023/11/27 07:49:08;;;;;;;0.85;0.20;;;19.90;40.40;20.80;100428.00;;;;5016553;28;20546;-52
2023/11/27 07:51:34;;;;;;;0.30;0.20;;;19.90;40.50;20.80;100421.00;;;;5020279;28;20504;-52
2023/11/27 07:54:01;;;;;;;0.57;0.28;;;20.00;40.60;20.80;100405.00;;;;5019624;28;20050;-60
2023/11/27 07:56:28;;;;;;;0.95;0.30;;;20.00;40.60;20.90;100408.00;;;;5025207;28;20087;-57
2023/11/27 07:58:57;;;;;;;1.08;0.20;;;20.10;40.70;20.90;100389.00;;;;5018898;28;20474;-69
2023/11/27 08:01:24;;;;;;;0.52;0.20;;;20.10;40.70;21.00;100390.00;;;;5017675;28;20069;-52
2023/11/27 08:03:51;;;;;;;0.30;0.13;;;20.20;40.70;21.10;100384.00;;;;5003181;28;20648;-54
2023/11/27 08:06:17;;;;;;;1.20;0.30;;;20.20;40.70;21.20;100392.00;;;;5034916;28;20044;-57
2023/11/27 08:08:43;;;;;;;0.30;0.20;;;20.30;40.70;21.30;100378.00;;;;5009373;28;20037;-53
2023/11/27 08:11:10;;;;;;;3.15;0.20;;;20.40;40.60;21.40;100383.00;;;;5017391;28;20195;-39
2023/11/27 08:13:37;;;;;;;0.75;0.47;;;20.50;40.50;21.50;100377.00;;;;5017374;28;20131;-39
2023/11/27 08:16:04;;;;;;;1.77;0.30;;;20.60;40.40;21.50;100375.00;;;;4992672;28;20094;-38
2023/11/27 08:18:30;;;;;;;2.65;1.58;;;20.60;40.30;21.60;100361.00;;;;5017411;28;20503;-39
2023/11/27 08:20:56;;;;;;;2.72;0.43;;;20.70;40.30;21.70;100348.00;;;;5017132;28;20073;-39
2023/11/27 08:23:24;;;;;;;2.45;0.10;;;20.80;40.20;21.80;100338.00;;;;5018024;28;20041;-39
2023/11/27 08:25:50;;;;;;;1.25;0.50;;;20.90;40.10;21.80;100353.00;;;;5017859;28;20137;-39
2023/11/27 08:28:16;;;;;;;7.40;1.08;;;20.90;40.00;21.90;100361.00;;;;5018792;28;20038;-39
2023/11/27 08:30:42;;;;;;;1.60;0.20;;;21.00;39.90;22.00;100355.00;;;;4986181;28;20113;-39
2023/11/27 08:33:08;;;;;;;0.65;0.32;;;21.10;39.80;22.10;100341.00;;;;5017860;28;20038;-40
2023/11/27 08:35:34;;;;;;;1.30;0.20;;;21.20;39.70;22.10;100319.00;;;;5018542;28;20749;-41
2023/11/27 08:38:02;;;;;;;3.33;0.20;;;21.20;39.70;22.10;100313.00;;;;5017823;28;20100;-38
2023/11/27 08:40:28;;;;;;;1.73;0.10;;;21.30;39.70;22.20;100303.00;;;;5018290;28;20600;-38
2023/11/27 08:42:53;;;;;;;3.03;0.20;;;21.30;39.60;22.20;100309.00;;;;5016224;28;20058;-39
2023/11/27 08:45:20;;;;;;;0.73;0.22;;;21.30;39.50;22.20;100314.00;;;;5018756;28;20083;-38
2023/11/27 08:47:52;;;;;;;6.30;1.20;;;21.40;39.50;22.20;100314.00;;;;5018109;28;20159;-38
2023/11/27 08:50:27;;;;;;;4.25;0.30;;;21.40;39.50;22.30;100305.00;;;;5018486;28;20060;-37
2023/11/27 08:52:57;;;;;;;4.03;0.30;;;21.40;39.40;22.30;100305.00;;;;5017472;28;20136;-67
2023/11/27 08:55:29;;;;;;;5.78;0.47;;;21.50;39.40;22.40;100299.00;;;;5016302;28;20049;-56
2023/11/27 08:57:58;;;;;;;2.25;0.30;;;21.60;39.30;22.50;100306.00;;;;5018104;28;20037;-64
2023/11/27 09:00:28;;;;;;;4.90;0.50;;;21.70;39.30;22.60;100294.00;;;;5018785;28;20116;-66
2023/11/27 09:02:56;;;;;;;6.10;0.68;;;21.70;39.20;22.70;100278.00;;;;5041569;28;20040;-58
2023/11/27 09:05:26;;;;;;;7.50;2.72;;;21.80;39.10;22.70;100278.00;;;;5017531;28;20120;-50
2023/11/27 09:07:53;;;;;;;9.25;0.90;;;21.80;39.60;22.80;100278.00;;;;5017276;28;20120;-55
2023/11/27 09:10:21;;;;;;;7.93;0.85;;;21.90;39.00;22.80;100281.00;;;;5017720;28;20124;-57
2023/11/27 09:12:48;;;;;;;7.35;0.95;;;21.90;38.90;22.80;100265.00;;;;5016496;28;20067;-39
2023/11/27 09:15:17;;;;;;;5.95;0.90;;;22.00;38.90;22.80;100271.00;;;;5017605;28;20052;-38
2023/11/27 09:17:44;;;;;;;7.35;1.27;;;22.00;38.80;22.80;100261.00;;;;5017098;28;20044;-38
2023/11/27 09:20:12;;;;;;;10.23;2.30;;;22.00;38.80;22.80;100262.00;;;;5019001;28;20048;-40
2023/11/27 09:22:41;;;;;;;7.03;1.33;;;22.00;38.80;22.80;100257.00;;;;5018516;28;20108;-40
2023/11/27 09:25:09;;;;;;;7.55;0.65;;;22.00;38.90;22.70;100250.00;;;;5018941;28;20045;-40
2023/11/27 09:27:46;;;;;;;4.03;0.50;;;22.00;38.80;22.70;100255.00;;;;5016048;28;20045;-40
2023/11/27 09:30:12;;;;;;;5.50;1.08;;;21.90;38.80;22.60;100248.00;;;;5023486;28;20501;-42
2023/11/27 09:32:39;;;;;;;9.32;2.05;;;21.90;38.90;22.60;100237.00;;;;5016999;28;20040;-47
2023/11/27 09:35:12;;;;;;;9.07;1.77;;;21.90;39.00;22.50;100241.00;;;;5015526;28;20037;-46
2023/11/27 09:37:41;;;;;;;7.38;0.73;;;21.90;38.90;22.50;100237.00;;;;5016732;28;20052;-47
2023/11/27 09:40:12;;;;;;;16.10;2.28;;;21.80;38.90;22.50;100244.00;;;;5023933;28;20041;-49
2023/11/27 09:42:40;;;;;;;4.45;1.40;;;21.80;38.90;22.40;100233.00;;;;5008104;28;20029;-48
2023/11/27 09:45:10;;;;;;;8.23;2.03;;;21.80;39.00;22.40;100234.00;;;;5016685;28;20037;-47
2023/11/27 09:47:37;;;;;;;6.43;1.42;;;21.80;38.90;22.40;100234.00;;;;5017673;28;20496;-47
2023/11/27 09:50:08;;;;;;;14.10;1.40;;;21.70;38.90;22.30;100225.00;;;;5018563;28;20095;-47
2023/11/27 09:53:00;;;;;;;11.25;3.50;;;21.70;38.90;22.30;100225.00;;;;5017469;28;20041;-46
2023/11/27 09:55:31;;;;;;;15.40;1.80;;;21.60;38.80;22.30;100223.00;;;;5017696;28;20041;-48
2023/11/27 09:57:59;;;;;;;6.88;1.48;;;21.60;38.80;22.30;100220.00;;;;4998561;28;20572;-48
2023/11/27 10:00:27;;;;;;;9.95;2.05;;;21.60;38.80;22.30;100215.00;;;;5017346;28;20101;-47
2023/11/27 10:02:53;;;;;;;12.55;2.03;;;21.60;38.80;22.20;100218.00;;;;5001061;28;20117;-47
2023/11/27 10:05:24;;;;;;;11.65;4.13;;;21.60;38.80;22.20;100212.00;;;;5017304;28;20026;-46
2023/11/27 10:07:54;;;;;;;24.58;3.00;;;21.60;38.80;22.20;100206.00;;;;4998080;28;20565;-47
2023/11/27 10:10:27;;;;;;;26.52;3.05;;;21.60;38.80;22.20;100195.00;;;;4997867;28;20187;-46
2023/11/27 10:13:06;;;;;;;24.27;2.00;;;21.50;38.80;22.20;100200.00;;;;5016453;28;20557;-49
2023/11/27 10:15:34;;;;;;;25.60;2.50;;;21.50;38.80;22.20;100199.00;;;;5017758;28;20731;-46
2023/11/27 10:18:02;;;;;;;13.02;2.65;;;21.50;38.80;22.20;100188.00;;;;4984212;28;20044;-46
2023/11/27 10:20:29;;;;;;;13.15;2.70;;;21.50;38.80;22.20;100177.00;;;;5017749;28;20040;-45
2023/11/27 10:22:58;;;;;;;17.23;1.73;;;21.50;39.20;22.20;100168.00;;;;5015446;28;20037;-43
2023/11/27 10:25:25;;;;;;;17.23;2.78;;;21.50;39.20;22.20;100164.00;;;;5015784;28;20057;-46
2023/11/27 10:27:58;;;;;;;12.48;1.83;;;21.50;39.30;22.20;100165.00;;;;5016312;28;20069;-49
2023/11/27 10:30:29;;;;;;;10.65;1.63;;;21.50;39.50;22.20;100164.00;;;;5017003;28;20045;-49
2023/11/27 10:32:56;;;;;;;11.68;1.40;;;21.50;39.60;22.30;100167.00;;;;5014646;28;20478;-47
2023/11/27 10:35:24;;;;;;;14.27;2.15;;;21.50;39.70;22.30;100152.00;;;;5015103;28;20061;-48
2023/11/27 10:37:52;;;;;;;22.08;2.10;;;21.60;39.80;22.30;100145.00;;;;5015618;28;20048;-45
2023/11/27 10:40:26;;;;;;;14.05;2.15;;;21.60;39.80;22.30;100131.00;;;;5014586;28;20940;-48
2023/11/27 10:42:59;;;;;;;8.88;0.95;;;21.60;40.00;22.30;100123.00;;;;5015344;28;20026;-48
2023/11/27 10:45:30;;;;;;;16.77;2.22;;;21.60;40.00;22.30;100130.00;;;;5015680;28;20034;-48